Time,TemperatureF,DewpointF,PressureIn,WindDirection,WindDirectionDegrees,WindSpeedMPH,WindSpeedGustMPH,Humidity,HourlyPrecipIn,Conditions,Clouds,dailyrainin,SoftwareType,DateUTC
2013-12-26 00:06:00,40.3,37.6,30.15,ENE,68,0.7,0.7,90,0.00,,,0.00,WUHU216HW,2013-12-26 08:06:00,
2013-12-26 00:36:00,40.3,37.6,30.15,NNW,338,0.0,0.0,90,0.00,,,0.00,WUHU216HW,2013-12-26 08:36:00,
2013-12-26 01:06:00,40.5,37.8,30.15,ENE,68,0.4,0.4,90,0.02,,,0.00,WUHU216HW,2013-12-26 09:06:00,
2013-12-26 01:36:00,40.5,37.8,30.15,NE,45,0.4,0.4,90,0.05,,,0.02,WUHU216HW,2013-12-26 09:36:00,
2013-12-26 02:06:00,40.3,37.9,30.15,ESE,113,0.4,0.4,91,0.06,,,0.05,WUHU216HW,2013-12-26 10:06:00,
2013-12-26 02:36:00,40.1,37.7,30.15,East,90,0.4,0.4,91,0.04,,,0.08,WUHU216HW,2013-12-26 10:36:00,
2013-12-26 03:06:00,40.5,38.3,30.14,ENE,68,1.6,1.6,92,0.02,,,0.09,WUHU216HW,2013-12-26 11:06:00,
2013-12-26 03:36:00,40.5,38.3,30.13,NE,45,0.2,0.2,92,0.01,,,0.10,WUHU216HW,2013-12-26 11:36:00,
2013-12-26 04:06:00,40.5,38.3,30.13,NE,45,0.9,0.9,92,0.01,,,0.10,WUHU216HW,2013-12-26 12:06:00,
2013-12-26 04:36:00,40.7,38.5,30.11,ENE,68,0.7,0.7,92,0.02,,,0.11,WUHU216HW,2013-12-26 12:36:00,
2013-12-26 05:06:00,40.7,38.5,30.11,East,90,0.0,0.0,92,0.01,,,0.12,WUHU216HW,2013-12-26 13:06:00,
2013-12-26 05:36:00,40.7,38.5,30.11,ESE,113,0.0,0.0,92,0.00,,,0.12,WUHU216HW,2013-12-26 13:36:00,
2013-12-26 06:06:00,40.5,38.6,30.10,ESE,113,0.0,0.0,93,0.00,,,0.12,WUHU216HW,2013-12-26 14:06:00,
2013-12-26 06:36:00,40.5,38.6,30.09,East,90,0.9,0.9,93,0.00,,,0.12,WUHU216HW,2013-12-26 14:36:00,
2013-12-26 07:06:00,40.7,38.8,30.09,ENE,68,1.1,1.1,93,0.00,,,0.12,WUHU216HW,2013-12-26 15:06:00,
2013-12-26 07:36:00,40.9,39.0,30.09,ESE,113,0.2,0.2,93,0.00,,,0.12,WUHU216HW,2013-12-26 15:36:00,
2013-12-26 08:06:00,40.9,38.7,30.09,ESE,113,0.0,0.0,92,0.00,,,0.12,WUHU216HW,2013-12-26 16:06:00,
2013-12-26 08:36:00,40.9,39.0,30.09,East,90,1.1,1.1,93,0.00,,,0.12,WUHU216HW,2013-12-26 16:36:00,
2013-12-26 09:06:00,41.2,39.3,30.08,ENE,68,0.7,0.7,93,0.00,,,0.12,WUHU216HW,2013-12-26 17:06:00,
2013-12-26 09:36:00,41.8,39.9,30.09,ENE,68,0.0,0.0,93,0.00,,,0.12,WUHU216HW,2013-12-26 17:36:00,
2013-12-26 10:06:00,42.5,40.6,30.10,NE,45,0.7,0.7,93,0.00,,,0.12,WUHU216HW,2013-12-26 18:06:00,
2013-12-26 10:36:00,44.5,42.6,30.10,ESE,113,0.0,0.0,93,0.00,,,0.12,WUHU216HW,2013-12-26 18:36:00,
2013-12-26 11:06:00,45.2,42.8,30.08,ESE,113,1.8,1.8,91,0.00,,,0.12,WUHU216HW,2013-12-26 19:06:00,
2013-12-26 11:36:00,47.9,45.2,30.07,NNE,23,3.1,3.1,90,0.00,,,0.12,WUHU216HW,2013-12-26 19:36:00,
2013-12-26 12:06:00,51.5,47.7,30.07,SE,135,1.8,1.8,87,0.00,,,0.12,WUHU216HW,2013-12-26 20:06:00,
2013-12-26 12:36:00,51.8,46.8,30.06,ENE,68,0.4,0.4,83,0.00,,,0.12,WUHU216HW,2013-12-26 20:36:00,
2013-12-26 13:06:00,53.3,47.0,30.05,ENE,68,0.7,0.7,79,0.00,,,0.12,WUHU216HW,2013-12-26 21:06:00,
2013-12-26 13:36:00,55.1,46.6,30.04,East,90,1.1,1.1,73,0.00,,,0.12,WUHU216HW,2013-12-26 21:36:00,
2013-12-26 14:06:00,56.2,48.0,30.04,ENE,68,1.1,1.1,74,0.00,,,0.12,WUHU216HW,2013-12-26 22:06:00,
2013-12-26 14:36:00,55.8,48.0,30.03,ENE,68,2.9,2.9,75,0.00,,,0.12,WUHU216HW,2013-12-26 22:36:00,
2013-12-26 15:06:00,56.0,48.2,30.03,East,90,0.2,0.2,75,0.00,,,0.12,WUHU216HW,2013-12-26 23:06:00,
2013-12-26 15:36:00,57.8,49.5,30.03,ENE,68,0.7,0.7,74,0.00,,,0.12,WUHU216HW,2013-12-26 23:36:00,
2013-12-26 16:00:00,56.5,46.4,30.02,ENE,68,0.4,0.4,69,0.00,,,0.12,WUHU216HW,2013-12-27 00:00:00,
2013-12-26 16:06:00,56.5,46.4,30.02,ENE,68,0.4,0.4,69,0.00,,,0.12,WUHU216HW,2013-12-27 00:06:00,
2013-12-26 16:36:00,51.5,42.9,30.01,SE,135,0.0,0.0,72,0.00,,,0.12,WUHU216HW,2013-12-27 00:36:00,
2013-12-26 17:00:00,48.4,40.4,30.01,South,180,0.0,0.0,74,0.00,,,0.12,WUHU216HW,2013-12-27 01:00:00,
2013-12-26 17:06:00,48.4,40.4,30.01,South,180,0.0,0.0,74,0.00,,,0.12,WUHU216HW,2013-12-27 01:06:00,
2013-12-26 17:36:00,45.7,39.0,30.00,North,0,0.0,0.0,77,0.00,,,0.12,WUHU216HW,2013-12-27 01:36:00,
2013-12-26 18:06:00,43.7,37.6,30.00,North,0,0.0,0.0,79,0.00,,,0.12,WUHU216HW,2013-12-27 02:06:00,
2013-12-26 18:36:00,41.9,36.5,29.99,North,0,0.0,0.0,81,0.00,,,0.12,WUHU216HW,2013-12-27 02:36:00,
2013-12-26 19:06:00,40.3,35.2,29.99,ENE,68,1.1,1.1,82,0.00,,,0.12,WUHU216HW,2013-12-27 03:06:00,
2013-12-26 19:36:00,39.6,35.2,29.98,NNE,23,1.8,1.8,84,0.00,,,0.12,WUHU216HW,2013-12-27 03:36:00,
2013-12-26 20:06:00,40.0,36.4,29.98,ENE,68,2.5,2.5,87,0.00,,,0.12,WUHU216HW,2013-12-27 04:06:00,
2013-12-26 20:36:00,39.8,36.5,29.97,ENE,68,1.6,1.6,88,0.00,,,0.12,WUHU216HW,2013-12-27 04:36:00,
2013-12-26 21:06:00,39.6,36.6,29.96,ESE,113,0.4,0.4,89,0.00,,,0.12,WUHU216HW,2013-12-27 05:06:00,
2013-12-26 21:36:00,39.2,36.5,29.96,ENE,68,1.1,1.1,90,0.00,,,0.12,WUHU216HW,2013-12-27 05:36:00,
2013-12-26 22:06:00,38.7,36.0,29.96,NE,45,0.0,0.0,90,0.00,,,0.12,WUHU216HW,2013-12-27 06:06:00,
2013-12-26 22:36:00,37.3,34.0,29.97,NNW,338,0.4,0.4,88,0.00,,,0.12,WUHU216HW,2013-12-27 06:36:00,
2013-12-26 23:06:00,36.4,33.1,29.97,NNW,338,0.0,0.0,88,0.00,,,0.12,WUHU216HW,2013-12-27 07:06:00,
2013-12-26 23:36:00,35.3,32.1,29.97,NNW,338,0.2,0.2,88,0.00,,,0.12,WUHU216HW,2013-12-27 07:36:00,